2026/07/30

Sensor Date Temp./Hum.
h4-hermonville 30-07-2026 - 23:58 23.8°C / 69%
h2-hermonville 30-07-2026 - 23:54 22.2°C / 76.5%
h1-hermonville 30-07-2026 - 23:54 23.1°C / 72.5%
h3-hermonville 30-07-2026 - 23:50 22.4°C / 75%
h4-hermonville 30-07-2026 - 23:48 23.8°C / 68.5%
h2-hermonville 30-07-2026 - 23:44 22.4°C / 76%
h1-hermonville 30-07-2026 - 23:44 23.2°C / 72%
h3-hermonville 30-07-2026 - 23:40 22.6°C / 74.5%
h4-hermonville 30-07-2026 - 23:38 24°C / 68.5%
h2-hermonville 30-07-2026 - 23:34 22.5°C / 76%
h1-hermonville 30-07-2026 - 23:34 23.3°C / 72%
h3-hermonville 30-07-2026 - 23:30 23.1°C / 72.5%
h4-hermonville 30-07-2026 - 23:28 23.8°C / 69%
h2-hermonville 30-07-2026 - 23:24 22.5°C / 75.5%
h1-hermonville 30-07-2026 - 23:24 23.4°C / 72%
h3-hermonville 30-07-2026 - 23:20 23.5°C / 71%
h4-hermonville 30-07-2026 - 23:18 23.8°C / 69%
h2-hermonville 30-07-2026 - 23:14 23°C / 74%
h1-hermonville 30-07-2026 - 23:14 23.6°C / 71%
h3-hermonville 30-07-2026 - 23:10 23.3°C / 72%
h4-hermonville 30-07-2026 - 23:08 24.1°C / 67.5%
h2-hermonville 30-07-2026 - 23:04 23.1°C / 73.5%
h1-hermonville 30-07-2026 - 23:04 23.7°C / 70.5%
h3-hermonville 30-07-2026 - 23:00 22.9°C / 73.5%
h4-hermonville 30-07-2026 - 22:58 24.2°C / 67.5%
h2-hermonville 30-07-2026 - 22:54 23.4°C / 72.5%
h1-hermonville 30-07-2026 - 22:54 23.6°C / 71%
h3-hermonville 30-07-2026 - 22:50 23.2°C / 72.5%
h4-hermonville 30-07-2026 - 22:48 24.4°C / 67%
h2-hermonville 30-07-2026 - 22:44 23.5°C / 72%
h1-hermonville 30-07-2026 - 22:44 23.8°C / 70.5%
h3-hermonville 30-07-2026 - 22:40 23.4°C / 72%
h4-hermonville 30-07-2026 - 22:38 24.4°C / 67%
h2-hermonville 30-07-2026 - 22:34 24.1°C / 70.5%
h1-hermonville 30-07-2026 - 22:34 24°C / 70%
h3-hermonville 30-07-2026 - 22:30 23.5°C / 72%
h2-hermonville 30-07-2026 - 22:24 24.2°C / 69.5%
h1-hermonville 30-07-2026 - 22:24 24°C / 70.5%
h3-hermonville 30-07-2026 - 22:20 23.7°C / 71%
h4-hermonville 30-07-2026 - 22:18 24.6°C / 66.5%
h2-hermonville 30-07-2026 - 22:14 25°C / 67.5%
h1-hermonville 30-07-2026 - 22:14 24°C / 71%
h3-hermonville 30-07-2026 - 22:10 24.4°C / 69%
h4-hermonville 30-07-2026 - 22:08 24.7°C / 66.5%
h2-hermonville 30-07-2026 - 22:04 25.6°C / 65%
h1-hermonville 30-07-2026 - 22:04 23.9°C / 71.5%
h3-hermonville 30-07-2026 - 22:00 25°C / 66.5%
h4-hermonville 30-07-2026 - 21:58 24.8°C / 65.5%
h2-hermonville 30-07-2026 - 21:54 26.2°C / 63%
h1-hermonville 30-07-2026 - 21:54 24.6°C / 69%
h3-hermonville 30-07-2026 - 21:50 25.1°C / 66%
h4-hermonville 30-07-2026 - 21:48 24.7°C / 66%
h2-hermonville 30-07-2026 - 21:44 26.5°C / 61.5%
h1-hermonville 30-07-2026 - 21:44 24.8°C / 67.5%
h3-hermonville 30-07-2026 - 21:40 25.3°C / 65%
h4-hermonville 30-07-2026 - 21:38 25.1°C / 65.5%
h2-hermonville 30-07-2026 - 21:34 26.6°C / 61.5%
h1-hermonville 30-07-2026 - 21:34 24.7°C / 67.5%
h3-hermonville 30-07-2026 - 21:30 25.7°C / 63.5%
h4-hermonville 30-07-2026 - 21:28 25.6°C / 63%
h2-hermonville 30-07-2026 - 21:24 26.8°C / 60%
h1-hermonville 30-07-2026 - 21:24 25.1°C / 66%
h3-hermonville 30-07-2026 - 21:20 25.8°C / 63%
h4-hermonville 30-07-2026 - 21:18 25.6°C / 62.5%
h2-hermonville 30-07-2026 - 21:14 26.8°C / 60%
h1-hermonville 30-07-2026 - 21:14 25.4°C / 65.5%
h3-hermonville 30-07-2026 - 21:10 26°C / 62%
h4-hermonville 30-07-2026 - 21:08 25.8°C / 62.5%
h2-hermonville 30-07-2026 - 21:04 26.8°C / 59.5%
h1-hermonville 30-07-2026 - 21:04 25.6°C / 64.5%
h3-hermonville 30-07-2026 - 21:00 26.2°C / 61.5%
h4-hermonville 30-07-2026 - 20:58 25.9°C / 62%
h2-hermonville 30-07-2026 - 20:54 27°C / 59%
h1-hermonville 30-07-2026 - 20:54 25.8°C / 63.5%
h3-hermonville 30-07-2026 - 20:50 26.5°C / 61%
h4-hermonville 30-07-2026 - 20:48 26°C / 61.5%
h2-hermonville 30-07-2026 - 20:44 27.1°C / 58.5%
h1-hermonville 30-07-2026 - 20:44 26.1°C / 62.5%
h3-hermonville 30-07-2026 - 20:40 26.7°C / 60%
h4-hermonville 30-07-2026 - 20:38 26.2°C / 61%
h2-hermonville 30-07-2026 - 20:34 27.3°C / 57.5%
h1-hermonville 30-07-2026 - 20:34 26.4°C / 62%
h3-hermonville 30-07-2026 - 20:30 27°C / 60%
h4-hermonville 30-07-2026 - 20:28 26.4°C / 60.5%
h2-hermonville 30-07-2026 - 20:24 27.5°C / 57%
h1-hermonville 30-07-2026 - 20:24 26.7°C / 61%
h3-hermonville 30-07-2026 - 20:20 27°C / 59%
h4-hermonville 30-07-2026 - 20:18 26.5°C / 59.5%
h2-hermonville 30-07-2026 - 20:14 28.1°C / 55%
h1-hermonville 30-07-2026 - 20:14 26.8°C / 60.5%
h3-hermonville 30-07-2026 - 20:10 27.2°C / 58.5%
h4-hermonville 30-07-2026 - 20:08 26.6°C / 59.5%
h2-hermonville 30-07-2026 - 20:04 29.2°C / 52%
h1-hermonville 30-07-2026 - 20:04 26.9°C / 59.5%
h3-hermonville 30-07-2026 - 20:00 27.3°C / 57.5%
h4-hermonville 30-07-2026 - 19:58 26.6°C / 58.5%
h2-hermonville 30-07-2026 - 19:54 31.3°C / 47%
h1-hermonville 30-07-2026 - 19:54 27.2°C / 58.5%
h3-hermonville 30-07-2026 - 19:50 27.3°C / 57%
h4-hermonville 30-07-2026 - 19:48 26.7°C / 58.5%
h2-hermonville 30-07-2026 - 19:44 31.8°C / 46%
h1-hermonville 30-07-2026 - 19:44 27.1°C / 58.5%
h3-hermonville 30-07-2026 - 19:40 27.3°C / 57%
h4-hermonville 30-07-2026 - 19:38 26.8°C / 58%
h2-hermonville 30-07-2026 - 19:34 33.3°C / 43%
h1-hermonville 30-07-2026 - 19:34 27.3°C / 57.5%
h3-hermonville 30-07-2026 - 19:30 27.5°C / 56.5%
h4-hermonville 30-07-2026 - 19:28 26.8°C / 58%
h2-hermonville 30-07-2026 - 19:24 33.5°C / 43%
h1-hermonville 30-07-2026 - 19:24 27.2°C / 57.5%
h3-hermonville 30-07-2026 - 19:20 27.4°C / 56%
h4-hermonville 30-07-2026 - 19:18 26.8°C / 57.5%
h2-hermonville 30-07-2026 - 19:14 32.7°C / 44.5%
h1-hermonville 30-07-2026 - 19:14 27.2°C / 57.5%
h3-hermonville 30-07-2026 - 19:10 27.4°C / 56%
h4-hermonville 30-07-2026 - 19:08 26.8°C / 57.5%
h3-hermonville 30-07-2026 - 19:00 27.5°C / 56.5%
h4-hermonville 30-07-2026 - 18:58 26.8°C / 58%
h2-hermonville 30-07-2026 - 18:54 31.6°C / 46.5%
h1-hermonville 30-07-2026 - 18:54 27.2°C / 57.5%
h3-hermonville 30-07-2026 - 18:50 27.3°C / 57%
h4-hermonville 30-07-2026 - 18:48 26.8°C / 58%
h2-hermonville 30-07-2026 - 18:44 32.8°C / 44.5%
h1-hermonville 30-07-2026 - 18:44 27.2°C / 57.5%
h3-hermonville 30-07-2026 - 18:40 27.3°C / 56.5%
h2-hermonville 30-07-2026 - 18:34 31.4°C / 47%
h1-hermonville 30-07-2026 - 18:34 27°C / 58.5%
h3-hermonville 30-07-2026 - 18:30 27.2°C / 57%
h4-hermonville 30-07-2026 - 18:28 26.6°C / 58.5%
h2-hermonville 30-07-2026 - 18:24 31.8°C / 46%
h1-hermonville 30-07-2026 - 18:24 27°C / 58.5%
h3-hermonville 30-07-2026 - 18:20 27.2°C / 57.5%
h2-hermonville 30-07-2026 - 18:14 31.8°C / 46.5%
h1-hermonville 30-07-2026 - 18:14 26.9°C / 59%
h3-hermonville 30-07-2026 - 18:10 27.1°C / 57.5%
h4-hermonville 30-07-2026 - 18:08 26.5°C / 58.5%
h2-hermonville 30-07-2026 - 18:04 31.6°C / 46.5%
h1-hermonville 30-07-2026 - 18:04 26.7°C / 59%
h3-hermonville 30-07-2026 - 18:00 26.9°C / 58.5%
h4-hermonville 30-07-2026 - 17:58 26.4°C / 59%
h2-hermonville 30-07-2026 - 17:54 30.8°C / 48.5%
h1-hermonville 30-07-2026 - 17:54 26.7°C / 59%
h3-hermonville 30-07-2026 - 17:50 27°C / 57.5%
h4-hermonville 30-07-2026 - 17:48 26.4°C / 58.5%
h1-hermonville 30-07-2026 - 17:44 26.8°C / 59%
h3-hermonville 30-07-2026 - 17:40 26.9°C / 57.5%
h3-hermonville 30-07-2026 - 17:30 26.7°C / 57.5%
h1-hermonville 30-07-2026 - 17:24 26.3°C / 59.5%
h3-hermonville 30-07-2026 - 17:20 26.6°C / 57.5%
h1-hermonville 30-07-2026 - 17:14 26.2°C / 59%
h3-hermonville 30-07-2026 - 17:10 26.3°C / 57.5%
h4-hermonville 30-07-2026 - 17:08 25.7°C / 59%
h2-hermonville 30-07-2026 - 17:04 30.6°C / 48%
h4-hermonville 30-07-2026 - 16:58 25.7°C / 59%
h3-hermonville 30-07-2026 - 16:50 26.3°C / 57%
h4-hermonville 30-07-2026 - 16:48 25.4°C / 61%
h3-hermonville 30-07-2026 - 16:40 25.9°C / 60.5%
h2-hermonville 30-07-2026 - 16:34 28.7°C / 54%
h1-hermonville 30-07-2026 - 16:34 25.1°C / 64.5%
h3-hermonville 30-07-2026 - 16:30 25.7°C / 61.5%
h4-hermonville 30-07-2026 - 16:28 24.9°C / 63%
h2-hermonville 30-07-2026 - 16:24 27.1°C / 60%
h1-hermonville 30-07-2026 - 16:24 24.7°C / 66.5%
h3-hermonville 30-07-2026 - 16:20 25.3°C / 64%
h4-hermonville 30-07-2026 - 16:18 24.5°C / 65.5%
h2-hermonville 30-07-2026 - 16:14 26.9°C / 59.5%
h1-hermonville 30-07-2026 - 16:14 24.5°C / 67%
h3-hermonville 30-07-2026 - 16:10 24.6°C / 66%
h2-hermonville 30-07-2026 - 16:04 25.6°C / 62.5%
h1-hermonville 30-07-2026 - 16:04 24.1°C / 67.5%
h3-hermonville 30-07-2026 - 16:00 24.3°C / 67%
h4-hermonville 30-07-2026 - 15:58 24°C / 67%
h1-hermonville 30-07-2026 - 15:54 24°C / 67.5%
h3-hermonville 30-07-2026 - 15:50 23.9°C / 67%
h4-hermonville 30-07-2026 - 15:48 23.7°C / 67%
h2-hermonville 30-07-2026 - 15:44 24.9°C / 65%
h1-hermonville 30-07-2026 - 15:44 23.5°C / 69.5%
h3-hermonville 30-07-2026 - 15:40 23.6°C / 68%
h4-hermonville 30-07-2026 - 15:38 23.3°C / 69.5%
h2-hermonville 30-07-2026 - 15:34 24.3°C / 68.5%
h3-hermonville 30-07-2026 - 15:30 22.8°C / 72%
h2-hermonville 30-07-2026 - 15:24 23.4°C / 69.5%
h1-hermonville 30-07-2026 - 15:24 23°C / 72%
h3-hermonville 30-07-2026 - 15:20 22.5°C / 74%
h4-hermonville 30-07-2026 - 15:18 22.3°C / 74%
h2-hermonville 30-07-2026 - 15:14 23°C / 72.5%
h1-hermonville 30-07-2026 - 15:14 22.7°C / 73.5%
h3-hermonville 30-07-2026 - 15:10 22.2°C / 73.5%
h4-hermonville 30-07-2026 - 15:08 22.1°C / 73%
h2-hermonville 30-07-2026 - 15:04 23°C / 74%
h1-hermonville 30-07-2026 - 15:04 22.6°C / 75%
h3-hermonville 30-07-2026 - 15:00 22.1°C / 77%
h4-hermonville 30-07-2026 - 14:58 21.8°C / 76.5%
h2-hermonville 30-07-2026 - 14:54 22.8°C / 73.5%
h1-hermonville 30-07-2026 - 14:54 22.4°C / 75%
h3-hermonville 30-07-2026 - 14:50 21.5°C / 77.5%
h4-hermonville 30-07-2026 - 14:48 21.7°C / 77%
h2-hermonville 30-07-2026 - 14:44 22.3°C / 75%
h1-hermonville 30-07-2026 - 14:44 22°C / 76%
h3-hermonville 30-07-2026 - 14:40 21.1°C / 80%
h4-hermonville 30-07-2026 - 14:38 21.6°C / 77.5%
h2-hermonville 30-07-2026 - 14:34 22.2°C / 76.5%
h1-hermonville 30-07-2026 - 14:34 21.4°C / 79%
h3-hermonville 30-07-2026 - 14:30 21.1°C / 79.5%
h4-hermonville 30-07-2026 - 14:28 20.9°C / 80%
h2-hermonville 30-07-2026 - 14:24 22.1°C / 75.5%
h4-hermonville 30-07-2026 - 14:18 20.9°C / 79.5%
h2-hermonville 30-07-2026 - 14:14 21.8°C / 78%
h1-hermonville 30-07-2026 - 14:14 20.5°C / 84%
h3-hermonville 30-07-2026 - 14:10 22°C / 75%
h4-hermonville 30-07-2026 - 14:08 20.5°C / 81%
h2-hermonville 30-07-2026 - 14:04 21.8°C / 76.5%
h1-hermonville 30-07-2026 - 14:04 20.3°C / 82%
h3-hermonville 30-07-2026 - 14:00 21.9°C / 74.5%
h2-hermonville 30-07-2026 - 13:54 21.4°C / 77%
h1-hermonville 30-07-2026 - 13:54 20.1°C / 81.5%
h3-hermonville 30-07-2026 - 13:50 21.7°C / 75%
h4-hermonville 30-07-2026 - 13:48 21°C / 77.5%
h2-hermonville 30-07-2026 - 13:44 21.8°C / 76.5%
h1-hermonville 30-07-2026 - 13:44 20.3°C / 82%
h3-hermonville 30-07-2026 - 13:40 21.9°C / 74%
h4-hermonville 30-07-2026 - 13:38 21°C / 77.5%
h2-hermonville 30-07-2026 - 13:34 21.5°C / 76%
h1-hermonville 30-07-2026 - 13:34 20.9°C / 77.5%
h3-hermonville 30-07-2026 - 13:30 21.6°C / 74%
h4-hermonville 30-07-2026 - 13:28 22.4°C / 69%
h2-hermonville 30-07-2026 - 13:24 20.9°C / 79%
h1-hermonville 30-07-2026 - 13:24 21.1°C / 75.5%
h3-hermonville 30-07-2026 - 13:20 21.2°C / 74.5%
h4-hermonville 30-07-2026 - 13:18 22.3°C / 69%
h2-hermonville 30-07-2026 - 13:14 20.5°C / 79%
h1-hermonville 30-07-2026 - 13:14 21.3°C / 74.5%
h3-hermonville 30-07-2026 - 13:10 21.1°C / 75%
h4-hermonville 30-07-2026 - 13:08 22.2°C / 69.5%
h2-hermonville 30-07-2026 - 13:04 20.6°C / 78.5%
h1-hermonville 30-07-2026 - 13:04 21.1°C / 74%
h3-hermonville 30-07-2026 - 13:00 21°C / 74%
h4-hermonville 30-07-2026 - 12:58 22.1°C / 69%
h2-hermonville 30-07-2026 - 12:54 20.9°C / 76%
h1-hermonville 30-07-2026 - 12:54 21.2°C / 73.5%
h3-hermonville 30-07-2026 - 12:50 21.1°C / 72.5%
h4-hermonville 30-07-2026 - 12:48 22.4°C / 67%
h2-hermonville 30-07-2026 - 12:44 21°C / 75%
h1-hermonville 30-07-2026 - 12:44 21.1°C / 72%
h3-hermonville 30-07-2026 - 12:40 21.1°C / 71.5%
h4-hermonville 30-07-2026 - 12:38 22.4°C / 66.5%
h2-hermonville 30-07-2026 - 12:34 20.8°C / 74.5%
h1-hermonville 30-07-2026 - 12:34 21.4°C / 70.5%
h3-hermonville 30-07-2026 - 12:30 21.3°C / 70.5%
h4-hermonville 30-07-2026 - 12:28 22.5°C / 65%
h2-hermonville 30-07-2026 - 12:24 20.7°C / 74%
h1-hermonville 30-07-2026 - 12:24 21.8°C / 69.5%
h3-hermonville 30-07-2026 - 12:20 21.4°C / 70%
h4-hermonville 30-07-2026 - 12:18 22.8°C / 64.5%
h2-hermonville 30-07-2026 - 12:14 20.9°C / 74%
h3-hermonville 30-07-2026 - 12:10 21.3°C / 70.5%
h4-hermonville 30-07-2026 - 12:08 22.9°C / 64%
h2-hermonville 30-07-2026 - 12:04 21.1°C / 72%
h1-hermonville 30-07-2026 - 12:04 22°C / 68%
h3-hermonville 30-07-2026 - 12:00 21.6°C / 68%
h2-hermonville 30-07-2026 - 11:54 21.5°C / 69.5%
h1-hermonville 30-07-2026 - 11:54 22°C / 67.5%
h3-hermonville 30-07-2026 - 11:50 21.7°C / 67.5%
h4-hermonville 30-07-2026 - 11:48 22.9°C / 63%
h2-hermonville 30-07-2026 - 11:44 21.5°C / 70%
h1-hermonville 30-07-2026 - 11:44 22.1°C / 66.5%
h3-hermonville 30-07-2026 - 11:40 22°C / 66%
h4-hermonville 30-07-2026 - 11:38 23.1°C / 61.5%
h2-hermonville 30-07-2026 - 11:34 21.7°C / 67.5%
h1-hermonville 30-07-2026 - 11:34 22.2°C / 65%
h3-hermonville 30-07-2026 - 11:30 21.8°C / 66.5%
h4-hermonville 30-07-2026 - 11:28 23.1°C / 60.5%
h1-hermonville 30-07-2026 - 11:24 22.4°C / 65.5%
h3-hermonville 30-07-2026 - 11:20 21.9°C / 65.5%
h4-hermonville 30-07-2026 - 11:18 23.4°C / 60%
h2-hermonville 30-07-2026 - 11:14 21.8°C / 67%
h1-hermonville 30-07-2026 - 11:14 22.5°C / 64%
h3-hermonville 30-07-2026 - 11:10 22°C / 65.5%
h4-hermonville 30-07-2026 - 11:08 23.6°C / 59%
h2-hermonville 30-07-2026 - 11:04 21.7°C / 68%
h1-hermonville 30-07-2026 - 11:04 22.6°C / 64%
h3-hermonville 30-07-2026 - 11:00 21.9°C / 65.5%
h4-hermonville 30-07-2026 - 10:58 24.2°C / 57.5%
h2-hermonville 30-07-2026 - 10:54 22.2°C / 70%
h1-hermonville 30-07-2026 - 10:54 23.2°C / 62.5%
h3-hermonville 30-07-2026 - 10:50 22.9°C / 61.5%
h4-hermonville 30-07-2026 - 10:48 24.7°C / 54.5%
h2-hermonville 30-07-2026 - 10:44 23.3°C / 61%
h1-hermonville 30-07-2026 - 10:44 23.6°C / 59%
h3-hermonville 30-07-2026 - 10:40 23.4°C / 57%
h4-hermonville 30-07-2026 - 10:38 25°C / 52%
h2-hermonville 30-07-2026 - 10:34 23.6°C / 58%
h1-hermonville 30-07-2026 - 10:34 23.6°C / 57.5%
h3-hermonville 30-07-2026 - 10:30 23.5°C / 57%
h4-hermonville 30-07-2026 - 10:28 25.5°C / 49.5%
h2-hermonville 30-07-2026 - 10:24 24.3°C / 54.5%
h1-hermonville 30-07-2026 - 10:24 23.6°C / 56.5%
h3-hermonville 30-07-2026 - 10:20 23.7°C / 55.5%
h4-hermonville 30-07-2026 - 10:18 25.7°C / 49%
h1-hermonville 30-07-2026 - 10:14 23.3°C / 57%
h3-hermonville 30-07-2026 - 10:10 23.4°C / 56.5%
h4-hermonville 30-07-2026 - 10:08 25.9°C / 48.5%
h2-hermonville 30-07-2026 - 10:04 24.4°C / 54%
h1-hermonville 30-07-2026 - 10:04 23°C / 58%
h3-hermonville 30-07-2026 - 10:00 23.4°C / 56.5%
h4-hermonville 30-07-2026 - 09:58 26.1°C / 48%
h2-hermonville 30-07-2026 - 09:54 24.6°C / 52.5%
h1-hermonville 30-07-2026 - 09:54 22.8°C / 58.5%
h3-hermonville 30-07-2026 - 09:50 23.4°C / 56%
h4-hermonville 30-07-2026 - 09:48 26.8°C / 46%
h1-hermonville 30-07-2026 - 09:44 23°C / 57.5%
h3-hermonville 30-07-2026 - 09:40 23.5°C / 55%
h4-hermonville 30-07-2026 - 09:38 27.5°C / 44%
h2-hermonville 30-07-2026 - 09:34 24.8°C / 51.5%
h1-hermonville 30-07-2026 - 09:34 23.3°C / 56%
h3-hermonville 30-07-2026 - 09:30 24.1°C / 52.5%
h4-hermonville 30-07-2026 - 09:28 29.8°C / 38.5%
h2-hermonville 30-07-2026 - 09:24 24.8°C / 50.5%
h1-hermonville 30-07-2026 - 09:24 23.8°C / 53%
h3-hermonville 30-07-2026 - 09:20 24.3°C / 51.5%
h4-hermonville 30-07-2026 - 09:18 30.5°C / 37.5%
h2-hermonville 30-07-2026 - 09:14 24.6°C / 51%
h1-hermonville 30-07-2026 - 09:14 23.5°C / 53%
h3-hermonville 30-07-2026 - 09:10 23.8°C / 52%
h4-hermonville 30-07-2026 - 09:08 29.5°C / 39%
h2-hermonville 30-07-2026 - 09:04 24.4°C / 51.5%
h1-hermonville 30-07-2026 - 09:04 23.4°C / 53.5%
h3-hermonville 30-07-2026 - 09:00 23.6°C / 52.5%
h4-hermonville 30-07-2026 - 08:58 29.4°C / 40%
h2-hermonville 30-07-2026 - 08:54 23.5°C / 54%
h1-hermonville 30-07-2026 - 08:54 23.5°C / 53%
h3-hermonville 30-07-2026 - 08:50 23.6°C / 53.5%
h4-hermonville 30-07-2026 - 08:48 27.7°C / 44.5%
h2-hermonville 30-07-2026 - 08:44 23.3°C / 55%
h1-hermonville 30-07-2026 - 08:44 22.9°C / 55.5%
h3-hermonville 30-07-2026 - 08:40 23.4°C / 54%
h4-hermonville 30-07-2026 - 08:38 25.3°C / 49%
h2-hermonville 30-07-2026 - 08:34 23.2°C / 54.5%
h1-hermonville 30-07-2026 - 08:34 22.8°C / 55.5%
h3-hermonville 30-07-2026 - 08:30 23.2°C / 54%
h4-hermonville 30-07-2026 - 08:28 24.3°C / 50%
h2-hermonville 30-07-2026 - 08:24 23°C / 55%
h1-hermonville 30-07-2026 - 08:24 22.8°C / 55.5%
h3-hermonville 30-07-2026 - 08:20 23.1°C / 54%
h4-hermonville 30-07-2026 - 08:18 24.3°C / 50%
h2-hermonville 30-07-2026 - 08:14 22.1°C / 57%
h1-hermonville 30-07-2026 - 08:14 22.2°C / 57%
h3-hermonville 30-07-2026 - 08:10 23.2°C / 53.5%
h4-hermonville 30-07-2026 - 08:08 24°C / 50.5%
h2-hermonville 30-07-2026 - 08:04 22.3°C / 56.5%
h1-hermonville 30-07-2026 - 08:04 21.5°C / 58.5%
h3-hermonville 30-07-2026 - 08:00 22.9°C / 53.5%
h4-hermonville 30-07-2026 - 07:58 23°C / 53%
h2-hermonville 30-07-2026 - 07:54 22.3°C / 56%
h1-hermonville 30-07-2026 - 07:54 21.6°C / 57.5%
h3-hermonville 30-07-2026 - 07:50 23.2°C / 53%
h4-hermonville 30-07-2026 - 07:48 23°C / 53%
h2-hermonville 30-07-2026 - 07:44 22.6°C / 55.5%
h1-hermonville 30-07-2026 - 07:44 21.8°C / 57.5%
h3-hermonville 30-07-2026 - 07:40 22.9°C / 54%
h4-hermonville 30-07-2026 - 07:38 23°C / 52.5%
h2-hermonville 30-07-2026 - 07:34 22°C / 57%
h1-hermonville 30-07-2026 - 07:34 21.5°C / 57.5%
h3-hermonville 30-07-2026 - 07:30 22.3°C / 55%
h4-hermonville 30-07-2026 - 07:28 23.5°C / 51.5%
h2-hermonville 30-07-2026 - 07:24 21.1°C / 59.5%
h1-hermonville 30-07-2026 - 07:24 21.3°C / 58%
h3-hermonville 30-07-2026 - 07:20 22.1°C / 56.5%
h4-hermonville 30-07-2026 - 07:18 23.2°C / 53%
h2-hermonville 30-07-2026 - 07:14 20.5°C / 62.5%
h1-hermonville 30-07-2026 - 07:14 21.2°C / 58.5%
h3-hermonville 30-07-2026 - 07:10 21.9°C / 56.5%
h4-hermonville 30-07-2026 - 07:08 22.8°C / 54.5%
h2-hermonville 30-07-2026 - 07:04 20.2°C / 63%
h1-hermonville 30-07-2026 - 07:04 21°C / 60.5%
h3-hermonville 30-07-2026 - 07:00 21.3°C / 58.5%
h4-hermonville 30-07-2026 - 06:58 22.5°C / 54.5%
h2-hermonville 30-07-2026 - 06:54 20.2°C / 63%
h1-hermonville 30-07-2026 - 06:54 20.5°C / 61.5%
h3-hermonville 30-07-2026 - 06:50 21.2°C / 59%
h4-hermonville 30-07-2026 - 06:48 22.5°C / 54.5%
h2-hermonville 30-07-2026 - 06:44 20.5°C / 62%
h1-hermonville 30-07-2026 - 06:44 20.3°C / 62%
h3-hermonville 30-07-2026 - 06:40 21.5°C / 57.5%
h4-hermonville 30-07-2026 - 06:38 22.5°C / 54%
h2-hermonville 30-07-2026 - 06:34 20.9°C / 61%
h1-hermonville 30-07-2026 - 06:34 20.5°C / 61.5%
h3-hermonville 30-07-2026 - 06:30 21.3°C / 59%
h4-hermonville 30-07-2026 - 06:28 22.3°C / 55.5%
h2-hermonville 30-07-2026 - 06:24 20.8°C / 62%
h1-hermonville 30-07-2026 - 06:24 20.4°C / 62%
h3-hermonville 30-07-2026 - 06:20 21.2°C / 59.5%
h4-hermonville 30-07-2026 - 06:18 22.5°C / 55%
h1-hermonville 30-07-2026 - 06:14 21°C / 60.5%
h3-hermonville 30-07-2026 - 06:10 21.2°C / 59%
h4-hermonville 30-07-2026 - 06:08 23°C / 53%
h2-hermonville 30-07-2026 - 06:04 21°C / 60%
h1-hermonville 30-07-2026 - 06:04 21.4°C / 58%
h3-hermonville 30-07-2026 - 06:00 21.1°C / 59.5%
h2-hermonville 30-07-2026 - 05:24 21.7°C / 58.5%
h1-hermonville 30-07-2026 - 05:24 21.9°C / 57.5%
h3-hermonville 30-07-2026 - 05:20 22.6°C / 54.5%
h4-hermonville 30-07-2026 - 05:18 23.6°C / 51%
h2-hermonville 30-07-2026 - 05:14 21.8°C / 58%
h1-hermonville 30-07-2026 - 05:14 22.1°C / 56.5%
h3-hermonville 30-07-2026 - 05:10 22.7°C / 55%
h4-hermonville 30-07-2026 - 05:08 24.1°C / 50%
h2-hermonville 30-07-2026 - 05:04 22.1°C / 57%
h1-hermonville 30-07-2026 - 05:04 22.9°C / 54%
h3-hermonville 30-07-2026 - 05:00 22.6°C / 54.5%
h4-hermonville 30-07-2026 - 04:58 24.7°C / 47.5%
h2-hermonville 30-07-2026 - 04:54 22.2°C / 56%
h1-hermonville 30-07-2026 - 04:54 23.6°C / 51.5%
h3-hermonville 30-07-2026 - 04:50 23.4°C / 51.5%
h4-hermonville 30-07-2026 - 04:48 24.6°C / 48%
h2-hermonville 30-07-2026 - 04:44 22.5°C / 55%
h1-hermonville 30-07-2026 - 04:44 23.7°C / 51%
h3-hermonville 30-07-2026 - 04:40 23°C / 52.5%
h4-hermonville 30-07-2026 - 04:38 25.1°C / 47.5%
h2-hermonville 30-07-2026 - 04:34 22.3°C / 56%
h1-hermonville 30-07-2026 - 04:34 23.7°C / 51%
h3-hermonville 30-07-2026 - 04:30 22.8°C / 53.5%
h4-hermonville 30-07-2026 - 04:28 24.9°C / 47.5%
h2-hermonville 30-07-2026 - 04:24 22.4°C / 56%
h1-hermonville 30-07-2026 - 04:24 23.9°C / 51%
h3-hermonville 30-07-2026 - 04:20 23.2°C / 52.5%
h4-hermonville 30-07-2026 - 04:18 25.2°C / 46%
h2-hermonville 30-07-2026 - 04:14 22.8°C / 54%
h1-hermonville 30-07-2026 - 04:14 24.1°C / 50%
h3-hermonville 30-07-2026 - 04:10 23.5°C / 51.5%
h4-hermonville 30-07-2026 - 04:08 25.2°C / 46%
h2-hermonville 30-07-2026 - 04:04 22.9°C / 54.5%
h1-hermonville 30-07-2026 - 04:04 24.1°C / 50.5%
h3-hermonville 30-07-2026 - 04:00 23.2°C / 52%
h4-hermonville 30-07-2026 - 03:58 25.4°C / 46%
h2-hermonville 30-07-2026 - 03:54 22.9°C / 55%
h1-hermonville 30-07-2026 - 03:54 24.2°C / 50%
h4-hermonville 30-07-2026 - 03:48 25.2°C / 46%
h2-hermonville 30-07-2026 - 03:44 22.9°C / 54.5%
h1-hermonville 30-07-2026 - 03:44 24.3°C / 49.5%
h3-hermonville 30-07-2026 - 03:40 23.8°C / 50%
h4-hermonville 30-07-2026 - 03:38 25.3°C / 46%
h2-hermonville 30-07-2026 - 03:34 23.2°C / 53.5%
h1-hermonville 30-07-2026 - 03:34 24.4°C / 49.5%
h3-hermonville 30-07-2026 - 03:30 23.9°C / 50%
h4-hermonville 30-07-2026 - 03:28 25.4°C / 45.5%
h2-hermonville 30-07-2026 - 03:24 23.2°C / 53%
h1-hermonville 30-07-2026 - 03:24 24.6°C / 48.5%
h3-hermonville 30-07-2026 - 03:20 24.4°C / 49%
h4-hermonville 30-07-2026 - 03:18 25.3°C / 46.5%
h2-hermonville 30-07-2026 - 03:14 23.5°C / 53%
h1-hermonville 30-07-2026 - 03:14 24.5°C / 48.5%
h3-hermonville 30-07-2026 - 03:10 23.7°C / 50%
h4-hermonville 30-07-2026 - 03:08 25.5°C / 44.5%
h2-hermonville 30-07-2026 - 03:04 23.4°C / 52.5%
h1-hermonville 30-07-2026 - 03:04 24.5°C / 48.5%
h3-hermonville 30-07-2026 - 03:00 23.9°C / 50.5%
h4-hermonville 30-07-2026 - 02:58 25.7°C / 45%
h2-hermonville 30-07-2026 - 02:54 23.5°C / 51.5%
h1-hermonville 30-07-2026 - 02:54 24.8°C / 47.5%
h3-hermonville 30-07-2026 - 02:50 24.1°C / 49.5%
h4-hermonville 30-07-2026 - 02:48 26°C / 43.5%
h2-hermonville 30-07-2026 - 02:44 24°C / 50%
h1-hermonville 30-07-2026 - 02:44 24.9°C / 47%
h3-hermonville 30-07-2026 - 02:40 24.8°C / 46.5%
h4-hermonville 30-07-2026 - 02:38 25.7°C / 43%
h2-hermonville 30-07-2026 - 02:34 24.2°C / 48%
h1-hermonville 30-07-2026 - 02:34 25°C / 45%
h3-hermonville 30-07-2026 - 02:30 24.5°C / 45.5%
h4-hermonville 30-07-2026 - 02:28 25.8°C / 42%
h2-hermonville 30-07-2026 - 02:24 24.9°C / 45%
h1-hermonville 30-07-2026 - 02:24 25°C / 44.5%
h3-hermonville 30-07-2026 - 02:20 24.7°C / 45%
h4-hermonville 30-07-2026 - 02:18 25.8°C / 42%
h2-hermonville 30-07-2026 - 02:14 24.7°C / 45.5%
h1-hermonville 30-07-2026 - 02:14 25°C / 44.5%
h3-hermonville 30-07-2026 - 02:10 24.8°C / 44.5%
h4-hermonville 30-07-2026 - 02:08 26.2°C / 41%
h2-hermonville 30-07-2026 - 02:04 24.8°C / 45%
h1-hermonville 30-07-2026 - 02:04 25°C / 44%
h3-hermonville 30-07-2026 - 02:00 25.1°C / 43.5%
h4-hermonville 30-07-2026 - 01:58 26.4°C / 40.5%
h2-hermonville 30-07-2026 - 01:54 25.3°C / 44%
h1-hermonville 30-07-2026 - 01:54 25.3°C / 44%
h4-hermonville 30-07-2026 - 01:48 26.8°C / 39%
h2-hermonville 30-07-2026 - 01:44 25.6°C / 42.5%
h1-hermonville 30-07-2026 - 01:44 25.5°C / 42%
h3-hermonville 30-07-2026 - 01:40 26.4°C / 39.5%
h4-hermonville 30-07-2026 - 01:38 26.7°C / 38.5%
h2-hermonville 30-07-2026 - 01:34 26.1°C / 40%
h1-hermonville 30-07-2026 - 01:34 25.7°C / 40%
h3-hermonville 30-07-2026 - 01:30 26.5°C / 38.5%
h4-hermonville 30-07-2026 - 01:28 26.8°C / 38%
h2-hermonville 30-07-2026 - 01:24 26.6°C / 39%
h1-hermonville 30-07-2026 - 01:24 25.9°C / 40%
h3-hermonville 30-07-2026 - 01:20 27.3°C / 37%
h4-hermonville 30-07-2026 - 01:18 27.2°C / 37%
h2-hermonville 30-07-2026 - 01:14 27.3°C / 38.5%
h1-hermonville 30-07-2026 - 01:14 26.5°C / 38%
h4-hermonville 30-07-2026 - 01:08 27.5°C / 36%
h2-hermonville 30-07-2026 - 01:04 27.9°C / 37%
h1-hermonville 30-07-2026 - 01:04 27.3°C / 37.5%
h3-hermonville 30-07-2026 - 01:00 28.1°C / 34.5%
h4-hermonville 30-07-2026 - 00:58 27.9°C / 34.5%
h2-hermonville 30-07-2026 - 00:54 28.1°C / 35%
h1-hermonville 30-07-2026 - 00:54 27.7°C / 35%
h3-hermonville 30-07-2026 - 00:50 28.2°C / 34%
h4-hermonville 30-07-2026 - 00:48 28°C / 34.5%
h1-hermonville 30-07-2026 - 00:44 28.3°C / 34%
h3-hermonville 30-07-2026 - 00:40 28.6°C / 32%
h4-hermonville 30-07-2026 - 00:38 28.5°C / 32.5%
h2-hermonville 30-07-2026 - 00:34 28.6°C / 33.5%
h1-hermonville 30-07-2026 - 00:34 28.6°C / 33%
h3-hermonville 30-07-2026 - 00:30 29.1°C / 31.5%
h4-hermonville 30-07-2026 - 00:28 28.8°C / 33%
h2-hermonville 30-07-2026 - 00:24 28.9°C / 34%
h1-hermonville 30-07-2026 - 00:24 28.9°C / 33%
h3-hermonville 30-07-2026 - 00:20 29.4°C / 31.5%
h4-hermonville 30-07-2026 - 00:18 29°C / 32%
h2-hermonville 30-07-2026 - 00:14 29°C / 33%
h1-hermonville 30-07-2026 - 00:14 29°C / 32%
h3-hermonville 30-07-2026 - 00:10 29.3°C / 31.5%
h4-hermonville 30-07-2026 - 00:08 29.1°C / 32%
h1-hermonville 30-07-2026 - 00:04 29°C / 32%
h3-hermonville 30-07-2026 - 00:00 29.3°C / 31%